sensor_id;sensor_type;location;lat;lon;timestamp;temperature;humidity
63202;DHT22;49296;48.188;11.566;2022-08-03T00:01:59;23.60;53.77
63202;DHT22;49296;48.188;11.566;2022-08-03T00:04:27;23.55;53.90
63202;DHT22;49296;48.188;11.566;2022-08-03T00:06:54;23.50;54.02
63202;DHT22;49296;48.188;11.566;2022-08-03T00:09:20;23.60;53.79
63202;DHT22;49296;48.188;11.566;2022-08-03T00:11:47;23.64;53.71
63202;DHT22;49296;48.188;11.566;2022-08-03T00:14:13;23.64;54.08
63202;DHT22;49296;48.188;11.566;2022-08-03T00:16:41;23.62;54.06
63202;DHT22;49296;48.188;11.566;2022-08-03T00:19:07;23.60;54.00
63202;DHT22;49296;48.188;11.566;2022-08-03T00:21:34;23.54;54.11
63202;DHT22;49296;48.188;11.566;2022-08-03T00:24:00;23.50;54.23
63202;DHT22;49296;48.188;11.566;2022-08-03T00:26:27;23.40;54.47
63202;DHT22;49296;48.188;11.566;2022-08-03T00:28:53;23.43;54.67
63202;DHT22;49296;48.188;11.566;2022-08-03T00:31:20;23.31;55.03
63202;DHT22;49296;48.188;11.566;2022-08-03T00:33:48;23.40;54.93
63202;DHT22;49296;48.188;11.566;2022-08-03T00:36:14;23.40;55.00
63202;DHT22;49296;48.188;11.566;2022-08-03T00:38:40;23.36;55.12
63202;DHT22;49296;48.188;11.566;2022-08-03T00:41:07;23.39;55.09
63202;DHT22;49296;48.188;11.566;2022-08-03T00:43:33;23.36;55.19
63202;DHT22;49296;48.188;11.566;2022-08-03T00:46:00;23.33;55.29
63202;DHT22;49296;48.188;11.566;2022-08-03T00:48:26;23.30;55.55
63202;DHT22;49296;48.188;11.566;2022-08-03T00:50:54;23.27;55.53
63202;DHT22;49296;48.188;11.566;2022-08-03T00:53:21;23.16;55.84
63202;DHT22;49296;48.188;11.566;2022-08-03T00:55:47;23.20;55.67
63202;DHT22;49296;48.188;11.566;2022-08-03T00:58:14;23.18;55.80
63202;DHT22;49296;48.188;11.566;2022-08-03T01:00:40;23.15;55.90
63202;DHT22;49296;48.188;11.566;2022-08-03T01:03:08;22.87;56.49
63202;DHT22;49296;48.188;11.566;2022-08-03T01:05:37;23.02;55.93
63202;DHT22;49296;48.188;11.566;2022-08-03T01:08:07;23.02;55.60
63202;DHT22;49296;48.188;11.566;2022-08-03T01:10:36;22.95;55.49
63202;DHT22;49296;48.188;11.566;2022-08-03T01:13:06;22.96;55.45
63202;DHT22;49296;48.188;11.566;2022-08-03T01:15:42;22.95;55.27
63202;DHT22;49296;48.188;11.566;2022-08-03T01:18:11;22.91;55.36
63202;DHT22;49296;48.188;11.566;2022-08-03T01:20:41;22.92;55.33
63202;DHT22;49296;48.188;11.566;2022-08-03T01:23:21;22.88;55.53
63202;DHT22;49296;48.188;11.566;2022-08-03T01:25:59;22.90;55.42
63202;DHT22;49296;48.188;11.566;2022-08-03T01:28:32;22.95;55.17
63202;DHT22;49296;48.188;11.566;2022-08-03T01:31:04;22.91;55.42
63202;DHT22;49296;48.188;11.566;2022-08-03T01:33:34;22.90;55.54
63202;DHT22;49296;48.188;11.566;2022-08-03T01:36:02;22.92;55.46
63202;DHT22;49296;48.188;11.566;2022-08-03T01:38:31;22.88;55.55
63202;DHT22;49296;48.188;11.566;2022-08-03T01:40:59;22.76;55.56
63202;DHT22;49296;48.188;11.566;2022-08-03T01:43:27;22.75;55.35
63202;DHT22;49296;48.188;11.566;2022-08-03T01:45:55;22.81;55.13
63202;DHT22;49296;48.188;11.566;2022-08-03T01:48:24;22.72;55.05
63202;DHT22;49296;48.188;11.566;2022-08-03T01:50:51;22.71;55.37
63202;DHT22;49296;48.188;11.566;2022-08-03T01:53:20;22.76;55.05
63202;DHT22;49296;48.188;11.566;2022-08-03T01:55:50;22.81;55.17
63202;DHT22;49296;48.188;11.566;2022-08-03T01:58:18;22.72;55.50
63202;DHT22;49296;48.188;11.566;2022-08-03T02:00:45;22.67;55.65
63202;DHT22;49296;48.188;11.566;2022-08-03T02:03:13;22.60;55.61
63202;DHT22;49296;48.188;11.566;2022-08-03T02:05:41;22.60;55.76
63202;DHT22;49296;48.188;11.566;2022-08-03T02:08:09;22.53;55.88
63202;DHT22;49296;48.188;11.566;2022-08-03T02:10:38;22.50;56.24
63202;DHT22;49296;48.188;11.566;2022-08-03T02:13:06;22.46;56.26
63202;DHT22;49296;48.188;11.566;2022-08-03T02:15:34;22.46;56.39
63202;DHT22;49296;48.188;11.566;2022-08-03T02:18:01;22.41;56.30
63202;DHT22;49296;48.188;11.566;2022-08-03T02:20:30;22.36;56.49
63202;DHT22;49296;48.188;11.566;2022-08-03T02:22:59;22.32;56.78
63202;DHT22;49296;48.188;11.566;2022-08-03T02:25:25;22.32;56.86
63202;DHT22;49296;48.188;11.566;2022-08-03T02:27:54;22.32;57.02
63202;DHT22;49296;48.188;11.566;2022-08-03T02:30:21;22.20;57.21
63202;DHT22;49296;48.188;11.566;2022-08-03T02:32:53;22.19;57.56
63202;DHT22;49296;48.188;11.566;2022-08-03T02:35:21;22.17;57.65
63202;DHT22;49296;48.188;11.566;2022-08-03T02:37:49;22.15;57.52
63202;DHT22;49296;48.188;11.566;2022-08-03T02:40:18;22.15;57.51
63202;DHT22;49296;48.188;11.566;2022-08-03T02:42:45;22.16;57.50
63202;DHT22;49296;48.188;11.566;2022-08-03T02:45:12;22.09;57.78
63202;DHT22;49296;48.188;11.566;2022-08-03T02:47:40;21.87;58.35
63202;DHT22;49296;48.188;11.566;2022-08-03T02:50:09;21.65;59.06
63202;DHT22;49296;48.188;11.566;2022-08-03T02:52:37;21.50;59.32
63202;DHT22;49296;48.188;11.566;2022-08-03T02:55:04;21.58;59.16
63202;DHT22;49296;48.188;11.566;2022-08-03T02:57:33;21.57;59.03
63202;DHT22;49296;48.188;11.566;2022-08-03T03:00:01;21.60;58.90
63202;DHT22;49296;48.188;11.566;2022-08-03T03:02:28;21.54;59.01
63202;DHT22;49296;48.188;11.566;2022-08-03T03:04:55;21.60;58.89
63202;DHT22;49296;48.188;11.566;2022-08-03T03:07:22;21.62;58.90
63202;DHT22;49296;48.188;11.566;2022-08-03T03:09:48;21.64;58.87
63202;DHT22;49296;48.188;11.566;2022-08-03T03:12:15;21.65;58.92
63202;DHT22;49296;48.188;11.566;2022-08-03T03:14:44;21.68;58.75
63202;DHT22;49296;48.188;11.566;2022-08-03T03:17:10;21.61;58.77
63202;DHT22;49296;48.188;11.566;2022-08-03T03:19:37;21.51;58.97
63202;DHT22;49296;48.188;11.566;2022-08-03T03:22:04;21.54;58.92
63202;DHT22;49296;48.188;11.566;2022-08-03T03:24:31;21.60;58.68
63202;DHT22;49296;48.188;11.566;2022-08-03T03:26:58;21.46;59.08
63202;DHT22;49296;48.188;11.566;2022-08-03T03:29:24;21.53;58.92
63202;DHT22;49296;48.188;11.566;2022-08-03T03:31:52;21.36;59.21
63202;DHT22;49296;48.188;11.566;2022-08-03T03:34:19;21.32;59.29
63202;DHT22;49296;48.188;11.566;2022-08-03T03:36:46;21.44;58.86
63202;DHT22;49296;48.188;11.566;2022-08-03T03:39:12;21.43;59.21
63202;DHT22;49296;48.188;11.566;2022-08-03T03:41:39;21.42;59.25
63202;DHT22;49296;48.188;11.566;2022-08-03T03:44:06;21.43;59.21
63202;DHT22;49296;48.188;11.566;2022-08-03T03:46:32;21.37;59.37
63202;DHT22;49296;48.188;11.566;2022-08-03T03:49:00;21.29;59.84
63202;DHT22;49296;48.188;11.566;2022-08-03T03:51:27;21.34;59.69
63202;DHT22;49296;48.188;11.566;2022-08-03T03:53:54;21.43;59.56
63202;DHT22;49296;48.188;11.566;2022-08-03T03:56:21;21.43;59.45
63202;DHT22;49296;48.188;11.566;2022-08-03T03:58:48;21.34;59.70
63202;DHT22;49296;48.188;11.566;2022-08-03T04:01:14;21.33;59.93
63202;DHT22;49296;48.188;11.566;2022-08-03T04:03:41;21.33;59.79
63202;DHT22;49296;48.188;11.566;2022-08-03T04:06:09;21.26;59.92
63202;DHT22;49296;48.188;11.566;2022-08-03T04:08:53;21.26;59.97
63202;DHT22;49296;48.188;11.566;2022-08-03T04:11:38;21.32;60.03
63202;DHT22;49296;48.188;11.566;2022-08-03T04:14:07;21.27;60.14
63202;DHT22;49296;48.188;11.566;2022-08-03T04:16:35;21.30;60.13
63202;DHT22;49296;48.188;11.566;2022-08-03T04:19:03;21.23;60.24
63202;DHT22;49296;48.188;11.566;2022-08-03T04:21:32;21.26;60.15
63202;DHT22;49296;48.188;11.566;2022-08-03T04:24:01;21.42;60.07
63202;DHT22;49296;48.188;11.566;2022-08-03T04:26:29;21.44;59.84
63202;DHT22;49296;48.188;11.566;2022-08-03T04:28:56;21.43;60.00
63202;DHT22;49296;48.188;11.566;2022-08-03T04:31:24;21.57;59.75
63202;DHT22;49296;48.188;11.566;2022-08-03T04:33:51;21.74;59.36
63202;DHT22;49296;48.188;11.566;2022-08-03T04:36:20;21.82;59.16
63202;DHT22;49296;48.188;11.566;2022-08-03T04:38:52;21.94;58.76
63202;DHT22;49296;48.188;11.566;2022-08-03T04:41:19;22.05;58.60
63202;DHT22;49296;48.188;11.566;2022-08-03T04:43:46;22.01;58.71
63202;DHT22;49296;48.188;11.566;2022-08-03T04:46:14;22.02;58.74
63202;DHT22;49296;48.188;11.566;2022-08-03T04:48:41;21.92;58.98
63202;DHT22;49296;48.188;11.566;2022-08-03T04:51:09;22.04;58.78
63202;DHT22;49296;48.188;11.566;2022-08-03T04:53:37;22.10;58.61
63202;DHT22;49296;48.188;11.566;2022-08-03T04:56:05;22.10;58.59
63202;DHT22;49296;48.188;11.566;2022-08-03T04:58:32;22.06;58.65
63202;DHT22;49296;48.188;11.566;2022-08-03T05:00:58;22.10;58.57
63202;DHT22;49296;48.188;11.566;2022-08-03T05:03:25;22.12;58.34
63202;DHT22;49296;48.188;11.566;2022-08-03T05:05:52;21.91;59.02
63202;DHT22;49296;48.188;11.566;2022-08-03T05:08:19;22.05;58.89
63202;DHT22;49296;48.188;11.566;2022-08-03T05:10:46;22.19;58.38
63202;DHT22;49296;48.188;11.566;2022-08-03T05:13:14;22.26;58.11
63202;DHT22;49296;48.188;11.566;2022-08-03T05:15:40;22.29;58.05
63202;DHT22;49296;48.188;11.566;2022-08-03T05:18:07;22.20;58.26
63202;DHT22;49296;48.188;11.566;2022-08-03T05:20:33;22.32;57.86
63202;DHT22;49296;48.188;11.566;2022-08-03T05:23:00;22.29;57.72
63202;DHT22;49296;48.188;11.566;2022-08-03T05:25:28;22.23;57.77
63202;DHT22;49296;48.188;11.566;2022-08-03T05:27:54;22.17;57.15
63202;DHT22;49296;48.188;11.566;2022-08-03T05:30:22;22.08;57.43
63202;DHT22;49296;48.188;11.566;2022-08-03T05:32:49;22.05;57.69
63202;DHT22;49296;48.188;11.566;2022-08-03T05:35:15;21.94;58.12
63202;DHT22;49296;48.188;11.566;2022-08-03T05:37:42;21.84;58.89
63202;DHT22;49296;48.188;11.566;2022-08-03T05:40:09;21.84;58.93
63202;DHT22;49296;48.188;11.566;2022-08-03T05:42:36;21.98;58.69
63202;DHT22;49296;48.188;11.566;2022-08-03T05:45:03;21.94;58.57
63202;DHT22;49296;48.188;11.566;2022-08-03T05:47:38;22.08;58.37
63202;DHT22;49296;48.188;11.566;2022-08-03T05:50:05;22.22;58.24
63202;DHT22;49296;48.188;11.566;2022-08-03T05:52:32;22.19;58.11
63202;DHT22;49296;48.188;11.566;2022-08-03T05:54:58;22.23;58.20
63202;DHT22;49296;48.188;11.566;2022-08-03T05:57:25;22.23;58.42
63202;DHT22;49296;48.188;11.566;2022-08-03T05:59:51;22.35;58.25
63202;DHT22;49296;48.188;11.566;2022-08-03T06:02:18;22.23;58.35
63202;DHT22;49296;48.188;11.566;2022-08-03T06:04:46;22.22;58.35
63202;DHT22;49296;48.188;11.566;2022-08-03T06:07:13;22.28;58.00
63202;DHT22;49296;48.188;11.566;2022-08-03T06:09:40;22.29;57.88
63202;DHT22;49296;48.188;11.566;2022-08-03T06:12:07;22.44;56.60
63202;DHT22;49296;48.188;11.566;2022-08-03T06:14:33;22.53;56.18
63202;DHT22;49296;48.188;11.566;2022-08-03T06:17:00;22.61;55.83
63202;DHT22;49296;48.188;11.566;2022-08-03T06:19:27;22.71;55.33
63202;DHT22;49296;48.188;11.566;2022-08-03T06:21:55;22.85;55.43
63202;DHT22;49296;48.188;11.566;2022-08-03T06:24:23;22.99;54.76
63202;DHT22;49296;48.188;11.566;2022-08-03T06:26:49;23.16;54.53
63202;DHT22;49296;48.188;11.566;2022-08-03T06:29:16;23.18;54.19
63202;DHT22;49296;48.188;11.566;2022-08-03T06:31:43;23.16;54.40
63202;DHT22;49296;48.188;11.566;2022-08-03T06:34:09;23.24;54.00
63202;DHT22;49296;48.188;11.566;2022-08-03T06:36:36;23.26;54.05
63202;DHT22;49296;48.188;11.566;2022-08-03T06:39:04;23.30;53.70
63202;DHT22;49296;48.188;11.566;2022-08-03T06:41:31;23.40;53.97
63202;DHT22;49296;48.188;11.566;2022-08-03T06:43:58;23.44;53.23
63202;DHT22;49296;48.188;11.566;2022-08-03T06:46:25;23.50;52.98
63202;DHT22;49296;48.188;11.566;2022-08-03T06:48:51;23.58;52.93
63202;DHT22;49296;48.188;11.566;2022-08-03T06:51:19;23.67;52.50
63202;DHT22;49296;48.188;11.566;2022-08-03T06:53:45;23.58;52.93
63202;DHT22;49296;48.188;11.566;2022-08-03T06:56:13;23.39;53.34
63202;DHT22;49296;48.188;11.566;2022-08-03T06:58:40;23.31;53.48
63202;DHT22;49296;48.188;11.566;2022-08-03T07:01:07;23.31;53.25
63202;DHT22;49296;48.188;11.566;2022-08-03T07:03:33;23.36;53.60
63202;DHT22;49296;48.188;11.566;2022-08-03T07:06:00;23.50;54.12
63202;DHT22;49296;48.188;11.566;2022-08-03T07:08:27;23.58;53.40
63202;DHT22;49296;48.188;11.566;2022-08-03T07:10:53;23.62;52.49
63202;DHT22;49296;48.188;11.566;2022-08-03T07:13:21;23.50;52.88
63202;DHT22;49296;48.188;11.566;2022-08-03T07:15:48;23.50;53.16
63202;DHT22;49296;48.188;11.566;2022-08-03T07:18:15;23.49;52.65
63202;DHT22;49296;48.188;11.566;2022-08-03T07:20:41;23.47;52.85
63202;DHT22;49296;48.188;11.566;2022-08-03T07:23:08;23.65;53.98
63202;DHT22;49296;48.188;11.566;2022-08-03T07:25:35;23.77;52.91
63202;DHT22;49296;48.188;11.566;2022-08-03T07:28:01;23.92;52.32
63202;DHT22;49296;48.188;11.566;2022-08-03T07:30:29;23.98;52.10
63202;DHT22;49296;48.188;11.566;2022-08-03T07:32:56;23.94;52.38
63202;DHT22;49296;48.188;11.566;2022-08-03T07:35:23;23.98;51.76
63202;DHT22;49296;48.188;11.566;2022-08-03T07:37:50;24.05;52.27
63202;DHT22;49296;48.188;11.566;2022-08-03T07:40:17;24.16;52.14
63202;DHT22;49296;48.188;11.566;2022-08-03T07:42:44;24.22;52.00
63202;DHT22;49296;48.188;11.566;2022-08-03T07:45:10;24.29;51.38
63202;DHT22;49296;48.188;11.566;2022-08-03T07:47:38;24.33;51.71
63202;DHT22;49296;48.188;11.566;2022-08-03T07:50:05;24.37;51.87
63202;DHT22;49296;48.188;11.566;2022-08-03T07:52:32;24.46;51.49
63202;DHT22;49296;48.188;11.566;2022-08-03T07:55:16;24.78;50.53
63202;DHT22;49296;48.188;11.566;2022-08-03T07:57:43;25.01;50.01
63202;DHT22;49296;48.188;11.566;2022-08-03T08:00:12;24.95;50.28
63202;DHT22;49296;48.188;11.566;2022-08-03T08:02:40;24.88;50.54
63202;DHT22;49296;48.188;11.566;2022-08-03T08:05:07;24.82;50.44
63202;DHT22;49296;48.188;11.566;2022-08-03T08:07:35;24.84;50.37
63202;DHT22;49296;48.188;11.566;2022-08-03T08:10:02;24.84;50.25
63202;DHT22;49296;48.188;11.566;2022-08-03T08:12:29;24.78;50.27
63202;DHT22;49296;48.188;11.566;2022-08-03T08:14:56;24.78;50.70
63202;DHT22;49296;48.188;11.566;2022-08-03T08:17:23;24.75;50.69
63202;DHT22;49296;48.188;11.566;2022-08-03T08:19:51;24.84;50.66
63202;DHT22;49296;48.188;11.566;2022-08-03T08:22:18;24.79;50.14
63202;DHT22;49296;48.188;11.566;2022-08-03T08:24:44;24.93;50.27
63202;DHT22;49296;48.188;11.566;2022-08-03T08:27:13;24.96;50.38
63202;DHT22;49296;48.188;11.566;2022-08-03T08:29:39;24.98;50.54
63202;DHT22;49296;48.188;11.566;2022-08-03T08:32:06;25.16;51.05
63202;DHT22;49296;48.188;11.566;2022-08-03T08:34:33;25.27;50.30
63202;DHT22;49296;48.188;11.566;2022-08-03T08:37:01;25.48;49.86
63202;DHT22;49296;48.188;11.566;2022-08-03T08:39:28;25.64;49.23
63202;DHT22;49296;48.188;11.566;2022-08-03T08:41:54;25.78;48.55
63202;DHT22;49296;48.188;11.566;2022-08-03T08:44:21;26.00;47.83
63202;DHT22;49296;48.188;11.566;2022-08-03T08:46:47;26.06;47.60
63202;DHT22;49296;48.188;11.566;2022-08-03T08:49:15;26.03;47.56
63202;DHT22;49296;48.188;11.566;2022-08-03T08:51:43;26.12;47.49
63202;DHT22;49296;48.188;11.566;2022-08-03T08:54:13;26.24;46.67
63202;DHT22;49296;48.188;11.566;2022-08-03T08:56:40;26.32;46.47
63202;DHT22;49296;48.188;11.566;2022-08-03T08:59:09;26.13;47.21
63202;DHT22;49296;48.188;11.566;2022-08-03T09:01:35;26.08;47.00
63202;DHT22;49296;48.188;11.566;2022-08-03T09:04:04;25.96;47.13
63202;DHT22;49296;48.188;11.566;2022-08-03T09:06:31;25.96;47.45
63202;DHT22;49296;48.188;11.566;2022-08-03T09:08:58;25.88;47.94
63202;DHT22;49296;48.188;11.566;2022-08-03T09:11:25;26.02;46.94
63202;DHT22;49296;48.188;11.566;2022-08-03T09:13:52;25.98;47.33
63202;DHT22;49296;48.188;11.566;2022-08-03T09:16:19;26.02;47.68
63202;DHT22;49296;48.188;11.566;2022-08-03T09:18:47;26.03;46.66
63202;DHT22;49296;48.188;11.566;2022-08-03T09:21:15;26.06;46.73
63202;DHT22;49296;48.188;11.566;2022-08-03T09:23:45;26.15;46.60
63202;DHT22;49296;48.188;11.566;2022-08-03T09:26:12;26.12;47.01
63202;DHT22;49296;48.188;11.566;2022-08-03T09:28:43;26.09;47.32
63202;DHT22;49296;48.188;11.566;2022-08-03T09:31:10;26.39;46.99
63202;DHT22;49296;48.188;11.566;2022-08-03T09:33:40;26.40;47.97
63202;DHT22;49296;48.188;11.566;2022-08-03T09:36:13;26.47;50.65
63202;DHT22;49296;48.188;11.566;2022-08-03T09:39:00;26.62;46.26
63202;DHT22;49296;48.188;11.566;2022-08-03T09:41:27;26.64;46.89
63202;DHT22;49296;48.188;11.566;2022-08-03T09:43:55;26.68;47.04
63202;DHT22;49296;48.188;11.566;2022-08-03T09:46:22;26.71;47.12
63202;DHT22;49296;48.188;11.566;2022-08-03T09:48:49;26.75;46.87
63202;DHT22;49296;48.188;11.566;2022-08-03T09:51:15;26.79;46.90
63202;DHT22;49296;48.188;11.566;2022-08-03T09:53:43;26.81;46.51
63202;DHT22;49296;48.188;11.566;2022-08-03T09:56:10;26.85;46.70
63202;DHT22;49296;48.188;11.566;2022-08-03T09:58:43;26.88;45.93
63202;DHT22;49296;48.188;11.566;2022-08-03T10:01:11;26.91;46.37
63202;DHT22;49296;48.188;11.566;2022-08-03T10:03:38;26.91;45.80
63202;DHT22;49296;48.188;11.566;2022-08-03T10:06:13;26.92;46.32
63202;DHT22;49296;48.188;11.566;2022-08-03T10:08:40;26.92;46.18
63202;DHT22;49296;48.188;11.566;2022-08-03T10:11:07;26.89;46.15
63202;DHT22;49296;48.188;11.566;2022-08-03T10:13:33;26.99;45.60
63202;DHT22;49296;48.188;11.566;2022-08-03T10:16:01;27.07;45.70
63202;DHT22;49296;48.188;11.566;2022-08-03T10:18:30;27.12;45.66
63202;DHT22;49296;48.188;11.566;2022-08-03T10:20:57;27.13;46.12
63202;DHT22;49296;48.188;11.566;2022-08-03T10:23:25;27.14;45.26
63202;DHT22;49296;48.188;11.566;2022-08-03T10:25:53;27.13;44.85
63202;DHT22;49296;48.188;11.566;2022-08-03T10:28:23;27.14;44.06
63202;DHT22;49296;48.188;11.566;2022-08-03T10:30:50;27.16;44.21
63202;DHT22;49296;48.188;11.566;2022-08-03T10:33:19;27.13;44.27
63202;DHT22;49296;48.188;11.566;2022-08-03T10:35:49;27.26;43.90
63202;DHT22;49296;48.188;11.566;2022-08-03T10:38:18;27.14;43.60
63202;DHT22;49296;48.188;11.566;2022-08-03T10:40:45;27.24;42.82
63202;DHT22;49296;48.188;11.566;2022-08-03T10:43:19;27.17;43.50
63202;DHT22;49296;48.188;11.566;2022-08-03T10:45:47;27.17;43.55
63202;DHT22;49296;48.188;11.566;2022-08-03T10:48:14;27.19;42.61
63202;DHT22;49296;48.188;11.566;2022-08-03T10:50:41;27.36;42.44
63202;DHT22;49296;48.188;11.566;2022-08-03T10:53:09;27.30;42.03
63202;DHT22;49296;48.188;11.566;2022-08-03T10:55:36;27.36;42.00
63202;DHT22;49296;48.188;11.566;2022-08-03T11:01:07;27.50;41.60
63202;DHT22;49296;48.188;11.566;2022-08-03T11:03:47;27.47;40.77
63202;DHT22;49296;48.188;11.566;2022-08-03T11:06:24;27.61;38.98
63202;DHT22;49296;48.188;11.566;2022-08-03T11:09:12;27.68;39.00
63202;DHT22;49296;48.188;11.566;2022-08-03T11:11:41;27.68;39.42
63202;DHT22;49296;48.188;11.566;2022-08-03T11:14:09;27.64;38.65
63202;DHT22;49296;48.188;11.566;2022-08-03T11:16:36;27.65;37.59
63202;DHT22;49296;48.188;11.566;2022-08-03T11:19:04;27.78;39.62
63202;DHT22;49296;48.188;11.566;2022-08-03T11:21:55;27.80;39.35
63202;DHT22;49296;48.188;11.566;2022-08-03T11:27:17;28.23;39.49
63202;DHT22;49296;48.188;11.566;2022-08-03T11:29:52;28.36;38.55
63202;DHT22;49296;48.188;11.566;2022-08-03T11:35:05;28.53;35.56
63202;DHT22;49296;48.188;11.566;2022-08-03T11:37:34;28.61;35.80
63202;DHT22;49296;48.188;11.566;2022-08-03T11:40:01;28.68;35.35
63202;DHT22;49296;48.188;11.566;2022-08-03T11:42:40;28.78;35.46
63202;DHT22;49296;48.188;11.566;2022-08-03T11:45:10;28.89;36.03
63202;DHT22;49296;48.188;11.566;2022-08-03T11:47:39;28.94;35.71
63202;DHT22;49296;48.188;11.566;2022-08-03T11:50:07;28.89;36.30
63202;DHT22;49296;48.188;11.566;2022-08-03T11:52:36;28.95;35.64
63202;DHT22;49296;48.188;11.566;2022-08-03T11:55:07;28.96;35.64
63202;DHT22;49296;48.188;11.566;2022-08-03T11:57:34;28.99;36.59
63202;DHT22;49296;48.188;11.566;2022-08-03T12:00:00;29.09;36.03
63202;DHT22;49296;48.188;11.566;2022-08-03T12:02:27;29.26;35.57
63202;DHT22;49296;48.188;11.566;2022-08-03T12:04:55;29.35;35.07
63202;DHT22;49296;48.188;11.566;2022-08-03T12:07:23;29.40;35.84
63202;DHT22;49296;48.188;11.566;2022-08-03T12:10:06;29.59;36.18
63202;DHT22;49296;48.188;11.566;2022-08-03T12:12:33;29.75;37.69
63202;DHT22;49296;48.188;11.566;2022-08-03T12:15:00;29.88;36.38
63202;DHT22;49296;48.188;11.566;2022-08-03T12:17:31;29.96;36.47
63202;DHT22;49296;48.188;11.566;2022-08-03T12:19:58;30.14;35.36
63202;DHT22;49296;48.188;11.566;2022-08-03T12:22:29;30.28;35.30
63202;DHT22;49296;48.188;11.566;2022-08-03T12:24:56;30.33;32.93
63202;DHT22;49296;48.188;11.566;2022-08-03T12:27:25;30.36;33.00
63202;DHT22;49296;48.188;11.566;2022-08-03T12:29:54;30.51;33.42
63202;DHT22;49296;48.188;11.566;2022-08-03T12:32:21;30.68;33.02
63202;DHT22;49296;48.188;11.566;2022-08-03T12:34:48;30.75;33.33
63202;DHT22;49296;48.188;11.566;2022-08-03T12:37:17;30.95;33.22
63202;DHT22;49296;48.188;11.566;2022-08-03T12:39:47;31.00;32.61
63202;DHT22;49296;48.188;11.566;2022-08-03T12:42:14;31.15;34.59
63202;DHT22;49296;48.188;11.566;2022-08-03T12:44:42;31.40;33.68
63202;DHT22;49296;48.188;11.566;2022-08-03T12:47:12;31.54;34.48
63202;DHT22;49296;48.188;11.566;2022-08-03T12:49:46;31.61;32.71
63202;DHT22;49296;48.188;11.566;2022-08-03T12:52:13;31.89;33.77
63202;DHT22;49296;48.188;11.566;2022-08-03T12:54:40;32.26;33.39
63202;DHT22;49296;48.188;11.566;2022-08-03T12:57:08;32.51;33.02
63202;DHT22;49296;48.188;11.566;2022-08-03T12:59:36;32.81;32.73
63202;DHT22;49296;48.188;11.566;2022-08-03T13:02:14;32.99;30.85
63202;DHT22;49296;48.188;11.566;2022-08-03T13:04:41;33.49;30.96
63202;DHT22;49296;48.188;11.566;2022-08-03T13:07:08;33.61;31.26
63202;DHT22;49296;48.188;11.566;2022-08-03T13:09:40;33.98;29.34
63202;DHT22;49296;48.188;11.566;2022-08-03T13:12:07;33.94;28.93
63202;DHT22;49296;48.188;11.566;2022-08-03T13:14:34;34.09;28.23
63202;DHT22;49296;48.188;11.566;2022-08-03T13:17:00;34.44;28.88
63202;DHT22;49296;48.188;11.566;2022-08-03T13:19:28;34.44;29.69
63202;DHT22;49296;48.188;11.566;2022-08-03T13:21:56;34.54;29.71
63202;DHT22;49296;48.188;11.566;2022-08-03T13:24:23;34.84;27.65
63202;DHT22;49296;48.188;11.566;2022-08-03T13:26:49;35.12;27.22
63202;DHT22;49296;48.188;11.566;2022-08-03T13:29:16;34.88;26.98
63202;DHT22;49296;48.188;11.566;2022-08-03T13:31:43;35.29;27.04
63202;DHT22;49296;48.188;11.566;2022-08-03T13:34:09;35.54;27.25
63202;DHT22;49296;48.188;11.566;2022-08-03T13:36:37;35.60;26.83
63202;DHT22;49296;48.188;11.566;2022-08-03T13:39:04;35.71;26.98
63202;DHT22;49296;48.188;11.566;2022-08-03T13:41:30;35.81;26.79
63202;DHT22;49296;48.188;11.566;2022-08-03T13:43:57;35.88;26.83
63202;DHT22;49296;48.188;11.566;2022-08-03T13:46:24;35.94;27.31
63202;DHT22;49296;48.188;11.566;2022-08-03T13:48:51;36.09;27.80
63202;DHT22;49296;48.188;11.566;2022-08-03T13:51:17;36.26;27.16
63202;DHT22;49296;48.188;11.566;2022-08-03T13:53:45;36.56;27.64
63202;DHT22;49296;48.188;11.566;2022-08-03T13:56:12;36.51;26.43
63202;DHT22;49296;48.188;11.566;2022-08-03T13:58:38;36.58;27.15
63202;DHT22;49296;48.188;11.566;2022-08-03T14:01:05;36.75;26.78
63202;DHT22;49296;48.188;11.566;2022-08-03T14:03:31;36.74;26.98
63202;DHT22;49296;48.188;11.566;2022-08-03T14:05:58;37.09;26.10
63202;DHT22;49296;48.188;11.566;2022-08-03T14:08:24;37.19;25.79
63202;DHT22;49296;48.188;11.566;2022-08-03T14:10:53;37.03;26.25
63202;DHT22;49296;48.188;11.566;2022-08-03T14:15:55;37.66;26.65
63202;DHT22;49296;48.188;11.566;2022-08-03T14:18:22;37.76;26.64
63202;DHT22;49296;48.188;11.566;2022-08-03T14:20:49;37.68;25.88
63202;DHT22;49296;48.188;11.566;2022-08-03T14:23:16;37.84;25.28
63202;DHT22;49296;48.188;11.566;2022-08-03T14:25:42;37.67;25.69
63202;DHT22;49296;48.188;11.566;2022-08-03T14:28:10;37.70;26.02
63202;DHT22;49296;48.188;11.566;2022-08-03T14:30:37;37.85;25.49
63202;DHT22;49296;48.188;11.566;2022-08-03T14:33:04;38.05;26.19
63202;DHT22;49296;48.188;11.566;2022-08-03T14:35:30;37.96;26.61
63202;DHT22;49296;48.188;11.566;2022-08-03T14:37:57;38.11;25.70
63202;DHT22;49296;48.188;11.566;2022-08-03T14:40:23;38.12;26.04
63202;DHT22;49296;48.188;11.566;2022-08-03T14:42:50;38.54;25.09
63202;DHT22;49296;48.188;11.566;2022-08-03T14:45:18;38.09;25.06
63202;DHT22;49296;48.188;11.566;2022-08-03T14:47:45;38.39;24.98
63202;DHT22;49296;48.188;11.566;2022-08-03T14:50:12;37.96;24.91
63202;DHT22;49296;48.188;11.566;2022-08-03T14:52:38;38.16;25.14
63202;DHT22;49296;48.188;11.566;2022-08-03T14:55:05;38.22;25.36
63202;DHT22;49296;48.188;11.566;2022-08-03T14:57:32;38.11;25.03
63202;DHT22;49296;48.188;11.566;2022-08-03T14:59:58;38.52;24.60
63202;DHT22;49296;48.188;11.566;2022-08-03T15:02:26;38.49;25.03
63202;DHT22;49296;48.188;11.566;2022-08-03T15:04:54;38.35;24.04
63202;DHT22;49296;48.188;11.566;2022-08-03T15:07:21;38.36;23.78
63202;DHT22;49296;48.188;11.566;2022-08-03T15:09:47;38.01;24.65
63202;DHT22;49296;48.188;11.566;2022-08-03T15:12:14;38.06;24.96
63202;DHT22;49296;48.188;11.566;2022-08-03T15:14:40;38.28;24.11
63202;DHT22;49296;48.188;11.566;2022-08-03T15:17:07;38.40;24.01
63202;DHT22;49296;48.188;11.566;2022-08-03T15:19:35;38.41;24.16
63202;DHT22;49296;48.188;11.566;2022-08-03T15:22:01;38.25;24.68
63202;DHT22;49296;48.188;11.566;2022-08-03T15:24:28;38.41;24.12
63202;DHT22;49296;48.188;11.566;2022-08-03T15:26:55;38.06;24.21
63202;DHT22;49296;48.188;11.566;2022-08-03T15:29:21;38.37;24.21
63202;DHT22;49296;48.188;11.566;2022-08-03T15:31:48;38.60;24.56